createdAt,value
2022-09-27T00:01:22.942Z,9.90
2022-09-27T00:04:12.667Z,9.70
2022-09-27T00:07:02.128Z,7.93
2022-09-27T00:09:50.940Z,8.73
2022-09-27T00:12:41.634Z,5.30
2022-09-27T00:15:30.401Z,8.03
2022-09-27T00:18:19.259Z,10.10
2022-09-27T00:21:08.694Z,8.53
2022-09-27T00:23:57.784Z,9.97
2022-09-27T00:26:47.729Z,5.70
2022-09-27T00:29:37.976Z,7.33
2022-09-27T00:32:26.844Z,7.33
2022-09-27T00:35:16.706Z,6.40
2022-09-27T00:38:06.122Z,8.50
2022-09-27T00:40:54.930Z,8.77
2022-09-27T00:43:49.100Z,6.13
2022-09-27T00:46:41.964Z,5.60
2022-09-27T00:49:33.391Z,9.00
2022-09-27T00:52:25.754Z,6.50
2022-09-27T00:55:16.152Z,4.97
2022-09-27T00:58:06.626Z,5.10
2022-09-27T01:00:57.508Z,8.27
2022-09-27T01:03:50.176Z,4.43
2022-09-27T01:06:39.232Z,7.93
2022-09-27T01:09:29.205Z,6.00
2022-09-27T01:12:23.157Z,4.90
2022-09-27T01:15:16.591Z,4.63
2022-09-27T01:18:14.478Z,3.93
2022-09-27T01:21:21.279Z,4.37
2022-09-27T01:24:25.078Z,9.30
2022-09-27T01:27:32.346Z,4.87
2022-09-27T01:30:23.872Z,4.43
2022-09-27T01:33:15.967Z,3.93
2022-09-27T01:36:18.236Z,5.10
2022-09-27T01:39:12.917Z,3.83
2022-09-27T01:42:04.042Z,6.83
2022-09-27T01:44:55.131Z,4.90
2022-09-27T01:47:47.113Z,5.30
2022-09-27T01:50:38.164Z,4.93
2022-09-27T01:53:29.217Z,5.73
2022-09-27T01:56:19.963Z,8.70
2022-09-27T01:59:11.683Z,8.10
2022-09-27T02:02:01.940Z,5.57
2022-09-27T02:04:53.636Z,9.83
2022-09-27T02:07:45.107Z,8.17
2022-09-27T02:10:37.419Z,9.93
2022-09-27T02:13:27.942Z,12.47
2022-09-27T02:16:22.119Z,8.60
2022-09-27T02:19:12.570Z,8.27
2022-09-27T02:22:06.080Z,10.80
2022-09-27T02:24:56.358Z,8.20
2022-09-27T02:27:51.266Z,8.37
2022-09-27T02:30:40.634Z,5.73
2022-09-27T02:33:31.632Z,7.67
2022-09-27T02:36:21.237Z,4.90
2022-09-27T02:39:11.473Z,9.23
2022-09-27T02:42:00.327Z,6.97
2022-09-27T02:44:49.187Z,6.80
2022-09-27T02:47:49.150Z,12.23
2022-09-27T02:50:45.168Z,5.47
2022-09-27T02:53:40.909Z,6.87
2022-09-27T02:56:36.287Z,7.53
2022-09-27T02:59:30.136Z,5.50
2022-09-27T03:02:23.420Z,4.57
2022-09-27T03:05:14.474Z,5.90
2022-09-27T03:08:03.622Z,5.77
2022-09-27T03:10:52.564Z,6.00
2022-09-27T03:14:06.850Z,5.57
2022-09-27T03:16:51.499Z,10.07
2022-09-27T03:19:40.434Z,7.73
2022-09-27T03:22:29.350Z,9.03
2022-09-27T03:25:19.496Z,7.40
2022-09-27T03:28:09.235Z,6.83
2022-09-27T03:30:59.406Z,9.07
2022-09-27T03:33:48.280Z,8.93
2022-09-27T03:36:37.026Z,8.63
2022-09-27T03:39:25.848Z,7.57
2022-09-27T03:42:14.994Z,9.73
2022-09-27T03:45:03.768Z,8.90
2022-09-27T03:47:54.769Z,5.50
2022-09-27T03:50:43.660Z,6.87
2022-09-27T03:53:32.447Z,10.33
2022-09-27T03:56:21.261Z,7.20
2022-09-27T03:59:10.084Z,8.83
2022-09-27T04:01:58.919Z,8.20
2022-09-27T04:04:49.052Z,6.20
2022-09-27T04:07:38.042Z,6.47
2022-09-27T04:10:27.071Z,8.13
2022-09-27T04:13:15.992Z,6.87
2022-09-27T04:16:04.823Z,8.23
2022-09-27T04:18:53.616Z,6.20
2022-09-27T04:21:43.730Z,6.23
2022-09-27T04:24:33.835Z,5.93
2022-09-27T04:27:22.923Z,6.40
2022-09-27T04:30:12.166Z,8.00
2022-09-27T04:33:00.932Z,7.50
2022-09-27T04:36:07.237Z,4.83
2022-09-27T04:38:58.295Z,8.00
2022-09-27T04:41:47.058Z,8.80
2022-09-27T04:44:36.966Z,8.90
2022-09-27T04:47:25.741Z,12.20
2022-09-27T04:50:15.010Z,8.77
2022-09-27T04:53:03.813Z,10.17
2022-09-27T04:55:55.545Z,9.10
2022-09-27T04:58:44.328Z,16.10
2022-09-27T05:01:33.372Z,14.10
2022-09-27T05:04:22.982Z,13.50
2022-09-27T05:07:11.855Z,21.20
2022-09-27T05:10:00.648Z,19.70
2022-09-27T05:12:50.816Z,20.70
2022-09-27T05:15:39.619Z,20.77
2022-09-27T05:18:28.502Z,17.63
2022-09-27T05:21:17.283Z,20.60
2022-09-27T05:24:06.205Z,14.10
2022-09-27T05:26:55.090Z,13.13
2022-09-27T05:29:45.419Z,12.37
2022-09-27T05:32:34.463Z,12.97
2022-09-27T05:35:24.023Z,17.10
2022-09-27T05:38:12.891Z,19.57
2022-09-27T05:41:01.754Z,21.73
2022-09-27T05:43:50.637Z,22.57
2022-09-27T05:46:40.786Z,20.40
2022-09-27T05:49:29.662Z,23.20
2022-09-27T05:52:20.198Z,22.90
2022-09-27T05:55:10.940Z,24.00
2022-09-27T05:58:00.716Z,25.33
2022-09-27T06:00:49.488Z,25.03
2022-09-27T06:03:41.042Z,20.60
2022-09-27T06:06:29.837Z,17.47
2022-09-27T06:09:18.958Z,18.37
2022-09-27T06:12:10.854Z,13.90
2022-09-27T06:14:59.636Z,10.93
2022-09-27T06:17:48.437Z,12.20
2022-09-27T06:20:38.692Z,11.00
2022-09-27T06:23:27.499Z,11.60
2022-09-27T06:26:16.292Z,10.03
2022-09-27T06:29:05.089Z,11.63
2022-09-27T06:31:53.858Z,17.07
2022-09-27T06:34:42.663Z,11.63
2022-09-27T06:37:32.784Z,13.23
2022-09-27T06:40:22.289Z,14.90
2022-09-27T06:43:11.798Z,14.73
2022-09-27T06:46:04.574Z,17.83
2022-09-27T06:48:53.821Z,14.70
2022-09-27T06:51:43.057Z,14.43
2022-09-27T06:54:33.165Z,16.90
2022-09-27T06:57:35.886Z,14.37
2022-09-27T07:00:24.698Z,14.17
2022-09-27T07:03:14.204Z,15.10
2022-09-27T07:06:04.000Z,16.70
2022-09-27T07:08:53.254Z,20.50
2022-09-27T07:11:45.927Z,13.07
2022-09-27T07:14:35.143Z,10.87
2022-09-27T07:17:24.052Z,15.67
2022-09-27T07:20:12.918Z,13.90
2022-09-27T07:23:01.785Z,11.30
2022-09-27T07:25:50.517Z,7.80
2022-09-27T07:28:41.527Z,6.37
2022-09-27T07:31:30.517Z,8.50
2022-09-27T07:34:19.396Z,12.20
2022-09-27T07:37:08.598Z,6.70
2022-09-27T07:39:57.604Z,8.17
2022-09-27T07:42:46.387Z,10.23
2022-09-27T07:45:36.823Z,7.30
2022-09-27T07:48:25.694Z,7.00
2022-09-27T07:51:14.461Z,6.37
2022-09-27T07:54:08.527Z,9.70
2022-09-27T07:56:57.606Z,4.93
2022-09-27T07:59:46.373Z,6.50
2022-09-27T08:02:36.522Z,6.67
2022-09-27T08:05:25.459Z,4.40
2022-09-27T08:08:14.548Z,5.83
2022-09-27T08:11:03.658Z,6.13
2022-09-27T08:13:53.299Z,11.40
2022-09-27T08:16:42.264Z,3.57
2022-09-27T08:19:32.943Z,9.13
2022-09-27T08:22:21.783Z,2.17
2022-09-27T08:25:11.304Z,3.80
2022-09-27T08:28:01.399Z,2.87
2022-09-27T08:30:50.966Z,4.53
2022-09-27T08:33:41.618Z,3.80
2022-09-27T08:36:35.848Z,12.87
2022-09-27T08:39:24.692Z,3.80
2022-09-27T08:42:17.514Z,3.93
2022-09-27T08:45:09.936Z,6.00
2022-09-27T08:48:00.797Z,5.60
2022-09-27T08:50:50.053Z,3.10
2022-09-27T08:53:41.668Z,3.50
2022-09-27T08:56:30.533Z,2.00
2022-09-27T08:59:21.933Z,3.17
2022-09-27T09:02:15.337Z,2.83
2022-09-27T09:05:07.682Z,5.73
2022-09-27T09:08:04.494Z,2.70
2022-09-27T09:11:14.410Z,3.27
2022-09-27T09:14:13.597Z,4.20
2022-09-27T09:17:06.526Z,3.40
2022-09-27T09:20:05.148Z,4.10
2022-09-27T09:23:03.135Z,3.87
2022-09-27T09:25:54.929Z,2.73
2022-09-27T09:28:50.382Z,3.57
2022-09-27T09:31:43.093Z,6.17
2022-09-27T09:34:34.827Z,4.90
2022-09-27T09:37:25.775Z,4.80
2022-09-27T09:40:19.126Z,6.43
2022-09-27T09:43:12.284Z,6.90
2022-09-27T09:46:05.340Z,9.73
2022-09-27T09:48:58.551Z,8.97
2022-09-27T09:51:50.031Z,5.83
2022-09-27T09:54:40.329Z,5.47
2022-09-27T09:57:31.566Z,6.20
2022-09-27T10:00:20.766Z,7.10
2022-09-27T10:03:10.982Z,4.60
2022-09-27T10:05:59.766Z,4.07
2022-09-27T10:08:49.966Z,5.73
2022-09-27T10:11:41.687Z,4.00
2022-09-27T10:14:30.648Z,3.67
2022-09-27T10:17:20.880Z,7.13
2022-09-27T10:20:16.736Z,3.60
2022-09-27T10:23:07.934Z,4.03
2022-09-27T10:25:58.162Z,2.87
2022-09-27T10:28:50.851Z,3.77
2022-09-27T10:31:42.084Z,3.23
2022-09-27T10:34:33.117Z,2.97
2022-09-27T10:37:25.008Z,4.50
2022-09-27T10:40:26.268Z,3.30
2022-09-27T10:43:29.413Z,2.87
2022-09-27T10:46:24.835Z,2.90
2022-09-27T10:49:17.615Z,3.80
2022-09-27T10:52:08.075Z,4.13
2022-09-27T10:54:59.518Z,2.93
2022-09-27T10:57:51.111Z,2.10
2022-09-27T11:00:40.013Z,2.23
2022-09-27T11:03:29.662Z,3.73
2022-09-27T11:06:28.130Z,2.33
2022-09-27T11:09:19.785Z,4.60
2022-09-27T11:12:13.031Z,3.33
2022-09-27T11:15:03.791Z,2.23
2022-09-27T11:18:01.169Z,3.93
2022-09-27T11:20:59.869Z,2.30
2022-09-27T11:23:57.632Z,2.60
2022-09-27T11:26:57.748Z,7.63
2022-09-27T11:30:05.051Z,2.73
2022-09-27T11:33:22.053Z,4.37
2022-09-27T11:36:17.408Z,4.07
2022-09-27T11:39:16.534Z,4.43
2022-09-27T11:42:16.717Z,5.07
2022-09-27T11:48:59.158Z,6.10
2022-09-27T11:52:23.977Z,6.30
2022-09-27T11:55:22.106Z,5.53
2022-09-27T11:58:18.405Z,5.37
2022-09-27T12:01:19.322Z,7.57
2022-09-27T12:04:24.465Z,7.90
2022-09-27T12:07:23.095Z,13.00
2022-09-27T12:10:19.778Z,7.20
2022-09-27T12:13:11.721Z,6.67
2022-09-27T12:16:08.302Z,10.13
2022-09-27T12:19:18.227Z,6.23
2022-09-27T12:22:13.344Z,6.87
2022-09-27T12:25:15.934Z,8.07
2022-09-27T12:28:18.235Z,7.77
2022-09-27T12:31:28.963Z,4.83
2022-09-27T12:34:29.689Z,4.67
2022-09-27T12:37:31.488Z,4.53
2022-09-27T12:40:27.243Z,4.93
2022-09-27T12:43:23.330Z,3.67
2022-09-27T12:46:18.500Z,4.00
2022-09-27T12:49:21.137Z,3.07
2022-09-27T12:52:26.758Z,4.10
2022-09-27T12:55:41.847Z,3.90
2022-09-27T12:59:00.871Z,2.53
2022-09-27T13:02:01.316Z,4.50
2022-09-27T13:05:12.009Z,3.13
2022-09-27T13:08:22.023Z,3.03
2022-09-27T13:11:29.023Z,2.53
2022-09-27T13:14:29.119Z,4.87
2022-09-27T13:17:38.430Z,4.80
2022-09-27T13:20:54.333Z,2.47
2022-09-27T13:23:57.620Z,4.47
2022-09-27T13:26:55.379Z,4.20
2022-09-27T13:29:46.599Z,7.00
2022-09-27T13:32:51.104Z,3.60
2022-09-27T13:35:48.571Z,3.87
2022-09-27T13:38:42.328Z,3.97
2022-09-27T13:41:45.299Z,3.10
2022-09-27T13:44:49.269Z,4.50
2022-09-27T13:47:42.644Z,4.07
2022-09-27T13:50:42.269Z,2.20
2022-09-27T13:53:38.063Z,3.70
2022-09-27T13:56:49.950Z,2.80
2022-09-27T13:59:51.764Z,2.00
2022-09-27T14:02:51.447Z,1.83
2022-09-27T14:05:45.117Z,1.90
2022-09-27T14:08:39.905Z,3.37
2022-09-27T14:11:32.566Z,3.97
2022-09-27T14:14:28.627Z,3.50
2022-09-27T14:17:26.067Z,3.00
2022-09-27T14:20:47.308Z,3.60
2022-09-27T14:23:43.972Z,4.53
2022-09-27T14:26:36.363Z,3.73
2022-09-27T14:29:30.318Z,3.30
2022-09-27T14:32:28.120Z,3.63
2022-09-27T14:35:38.313Z,3.50
2022-09-27T14:38:39.636Z,2.00
2022-09-27T14:41:45.286Z,3.70
2022-09-27T14:44:39.201Z,3.00
2022-09-27T14:47:34.285Z,2.33
2022-09-27T14:50:33.606Z,4.30
2022-09-27T14:53:28.391Z,3.10
2022-09-27T14:56:19.438Z,4.57
2022-09-27T14:59:19.728Z,5.60
2022-09-27T15:02:26.873Z,9.03
2022-09-27T15:05:25.942Z,4.80
2022-09-27T15:08:16.529Z,4.17
2022-09-27T15:11:10.528Z,3.20
2022-09-27T15:14:03.116Z,2.10
2022-09-27T15:16:55.153Z,3.63
2022-09-27T15:20:01.828Z,3.07
2022-09-27T15:23:04.044Z,2.60
2022-09-27T15:26:02.965Z,2.47
2022-09-27T15:28:55.755Z,2.13
2022-09-27T15:31:51.980Z,2.60
2022-09-27T15:34:50.266Z,2.47
2022-09-27T15:37:41.541Z,6.30
2022-09-27T15:41:06.036Z,3.23
2022-09-27T15:44:08.992Z,2.80
2022-09-27T15:47:13.678Z,2.40
2022-09-27T15:50:25.307Z,3.97
2022-09-27T15:53:15.537Z,4.43
2022-09-27T15:56:12.512Z,2.80
2022-09-27T15:59:10.299Z,4.57
2022-09-27T16:02:08.590Z,2.80
2022-09-27T16:05:01.576Z,6.03
2022-09-27T16:07:53.233Z,3.53
2022-09-27T16:10:46.892Z,1.63
2022-09-27T16:13:44.044Z,2.63
2022-09-27T16:16:45.792Z,4.90
2022-09-27T16:19:42.449Z,3.63
2022-09-27T16:22:34.935Z,2.87
2022-09-27T16:25:29.422Z,2.37
2022-09-27T16:28:27.096Z,4.10
2022-09-27T16:31:21.786Z,3.30
2022-09-27T16:34:19.532Z,2.43
2022-09-27T16:37:14.636Z,3.30
2022-09-27T16:40:15.508Z,2.07
2022-09-27T16:43:10.435Z,3.47
2022-09-27T16:46:11.453Z,2.17
2022-09-27T16:49:06.191Z,6.03
2022-09-27T16:52:04.265Z,6.30
2022-09-27T16:55:01.619Z,5.07
2022-09-27T16:57:52.659Z,6.13
2022-09-27T17:00:50.493Z,6.40
2022-09-27T17:03:45.715Z,7.30
2022-09-27T17:06:39.276Z,26.73
2022-09-27T17:09:36.818Z,25.77
2022-09-27T17:12:30.704Z,9.33
2022-09-27T17:15:34.911Z,5.80
2022-09-27T17:18:27.193Z,7.63
2022-09-27T17:21:35.648Z,3.70
2022-09-27T17:24:48.037Z,2.67
2022-09-27T17:27:39.508Z,3.97
2022-09-27T17:30:35.118Z,5.53
2022-09-27T17:33:43.943Z,4.00
2022-09-27T17:36:45.703Z,4.63
2022-09-27T17:39:53.918Z,3.50
2022-09-27T17:42:53.092Z,8.37
2022-09-27T17:45:46.964Z,5.60
2022-09-27T17:48:55.960Z,6.53
2022-09-27T17:51:52.319Z,3.33
2022-09-27T17:55:01.403Z,3.63
2022-09-27T17:57:52.528Z,2.83
2022-09-27T18:00:43.497Z,2.57
2022-09-27T18:03:47.467Z,3.50
2022-09-27T18:06:41.879Z,2.80
2022-09-27T18:09:33.293Z,6.00
2022-09-27T18:12:34.631Z,4.27
2022-09-27T18:15:26.753Z,7.70
2022-09-27T18:18:31.039Z,3.13
2022-09-27T18:21:35.282Z,6.77
2022-09-27T18:24:35.267Z,5.13
2022-09-27T18:27:44.191Z,3.03
2022-09-27T18:30:37.437Z,4.10
2022-09-27T18:33:42.251Z,2.97
2022-09-27T18:36:46.555Z,5.50
2022-09-27T18:39:49.558Z,6.40
2022-09-27T18:42:50.823Z,4.33
2022-09-27T18:45:46.545Z,6.03
2022-09-27T18:48:44.670Z,4.27
2022-09-27T18:51:46.150Z,4.53
2022-09-27T18:54:43.433Z,5.80
2022-09-27T18:57:47.110Z,4.17
2022-09-27T19:00:37.748Z,3.33
2022-09-27T19:03:27.925Z,4.67
2022-09-27T19:06:32.256Z,2.67
2022-09-27T19:09:26.985Z,3.50
2022-09-27T19:12:23.741Z,3.33
2022-09-27T19:15:21.122Z,3.00
2022-09-27T19:18:22.811Z,3.90
2022-09-27T19:21:22.432Z,3.03
2022-09-27T19:24:17.078Z,2.40
2022-09-27T19:27:19.830Z,3.63
2022-09-27T19:30:13.135Z,4.17
2022-09-27T19:33:07.217Z,2.87
2022-09-27T19:36:05.463Z,4.73
2022-09-27T19:39:12.065Z,4.63
2022-09-27T19:42:10.332Z,4.83
2022-09-27T19:45:09.346Z,6.03
2022-09-27T19:48:00.989Z,4.97
2022-09-27T19:50:57.992Z,2.87
2022-09-27T19:54:08.358Z,5.93
2022-09-27T19:57:13.104Z,3.93
2022-09-27T20:00:19.359Z,4.43
2022-09-27T20:03:10.613Z,6.67
2022-09-27T20:06:04.773Z,6.00
2022-09-27T20:09:15.570Z,3.63
2022-09-27T20:12:12.267Z,5.47
2022-09-27T20:15:07.038Z,4.47
2022-09-27T20:18:09.960Z,6.00
2022-09-27T20:21:11.176Z,6.50
2022-09-27T20:24:06.552Z,6.33
2022-09-27T20:27:11.028Z,5.77
2022-09-27T20:30:03.128Z,6.30
2022-09-27T20:33:08.215Z,5.43
2022-09-27T20:36:02.541Z,4.50
2022-09-27T20:38:58.210Z,4.30
2022-09-27T20:42:01.635Z,4.40
2022-09-27T20:45:07.344Z,7.00
2022-09-27T20:48:16.104Z,7.13
2022-09-27T20:51:22.499Z,4.67
2022-09-27T20:54:23.512Z,7.00
2022-09-27T20:57:46.415Z,5.67
2022-09-27T21:00:44.509Z,8.20
2022-09-27T21:03:38.526Z,7.10
2022-09-27T21:06:35.213Z,6.33
2022-09-27T21:09:31.519Z,5.77
2022-09-27T21:12:33.945Z,6.40
2022-09-27T21:15:28.536Z,6.03
2022-09-27T21:18:26.179Z,9.37
2022-09-27T21:21:18.232Z,9.77
2022-09-27T21:24:10.119Z,9.17
2022-09-27T21:27:14.064Z,6.80
2022-09-27T21:30:35.358Z,9.47
2022-09-27T21:33:40.359Z,10.77
2022-09-27T21:36:33.584Z,11.70
2022-09-27T21:39:34.168Z,13.10
2022-09-27T21:42:23.525Z,12.40
2022-09-27T21:45:34.072Z,9.47
2022-09-27T21:48:37.843Z,11.70
2022-09-27T21:51:43.551Z,11.60
2022-09-27T21:54:48.363Z,10.10
2022-09-27T21:57:50.939Z,8.40
2022-09-27T22:00:47.256Z,9.60
2022-09-27T22:03:54.164Z,9.40
2022-09-27T22:06:43.523Z,9.90
2022-09-27T22:09:46.705Z,10.53
2022-09-27T22:12:47.484Z,9.10
2022-09-27T22:15:45.058Z,13.50
2022-09-27T22:18:41.309Z,10.90
2022-09-27T22:21:39.921Z,10.53
2022-09-27T22:24:35.983Z,10.33
2022-09-27T22:27:40.620Z,9.33
2022-09-27T22:30:32.936Z,12.30
2022-09-27T22:33:32.192Z,9.63
2022-09-27T22:36:34.829Z,10.77
2022-09-27T22:39:27.428Z,10.50
2022-09-27T22:42:31.321Z,11.57
2022-09-27T22:45:29.277Z,12.87
2022-09-27T22:48:33.331Z,6.80
2022-09-27T22:51:45.544Z,7.70
2022-09-27T22:54:40.246Z,7.20
2022-09-27T22:57:37.434Z,6.93
2022-09-27T23:00:32.593Z,5.90
2022-09-27T23:03:31.162Z,7.00
2022-09-27T23:06:28.243Z,6.20
2022-09-27T23:09:28.609Z,5.40
2022-09-27T23:12:24.100Z,6.60
2022-09-27T23:15:19.520Z,7.00
2022-09-27T23:18:23.343Z,7.30
2022-09-27T23:21:16.951Z,7.90
2022-09-27T23:24:07.344Z,10.80
2022-09-27T23:27:19.691Z,7.43
2022-09-27T23:30:14.534Z,6.80
2022-09-27T23:33:05.999Z,6.77
2022-09-27T23:36:10.086Z,7.17
2022-09-27T23:39:03.747Z,9.97
2022-09-27T23:41:58.396Z,7.07
2022-09-27T23:44:53.401Z,8.93
2022-09-27T23:48:00.079Z,7.77
2022-09-27T23:50:56.743Z,8.40
2022-09-27T23:53:53.880Z,9.80
2022-09-27T23:56:47.860Z,10.60
2022-09-27T23:59:49.223Z,9.17
